createdAt,value
2022-09-20T00:01:38.358Z,5.40
2022-09-20T00:04:08.309Z,5.70
2022-09-20T00:06:36.729Z,6.10
2022-09-20T00:09:05.918Z,5.40
2022-09-20T00:11:36.539Z,6.80
2022-09-20T00:14:09.025Z,6.30
2022-09-20T00:16:39.959Z,6.10
2022-09-20T00:19:10.097Z,6.30
2022-09-20T00:21:38.564Z,6.70
2022-09-20T00:24:07.248Z,6.30
2022-09-20T00:26:35.523Z,8.00
2022-09-20T00:29:05.456Z,7.60
2022-09-20T00:31:34.081Z,7.20
2022-09-20T00:34:20.935Z,7.30
2022-09-20T00:36:49.005Z,7.00
2022-09-20T00:39:17.834Z,6.80
2022-09-20T00:41:46.304Z,7.90
2022-09-20T00:44:51.826Z,7.90
2022-09-20T00:47:26.859Z,8.00
2022-09-20T00:50:18.689Z,8.00
2022-09-20T00:52:49.423Z,8.10
2022-09-20T00:55:19.643Z,9.00
2022-09-20T00:57:48.637Z,6.70
2022-09-20T01:00:17.342Z,8.30
2022-09-20T01:02:54.030Z,8.20
2022-09-20T01:05:22.271Z,8.30
2022-09-20T01:07:52.288Z,8.80
2022-09-20T01:10:20.461Z,9.30
2022-09-20T01:12:50.786Z,9.40
2022-09-20T01:15:21.110Z,8.50
2022-09-20T01:17:52.765Z,8.90
2022-09-20T01:20:28.805Z,8.20
2022-09-20T01:23:25.670Z,9.40
2022-09-20T01:26:21.599Z,9.00
2022-09-20T01:28:54.273Z,7.40
2022-09-20T01:31:28.677Z,8.90
2022-09-20T01:34:08.915Z,9.00
2022-09-20T01:36:50.304Z,8.60
2022-09-20T01:39:37.046Z,9.40
2022-09-20T01:42:11.641Z,8.70
2022-09-20T01:45:12.302Z,8.40
2022-09-20T01:48:04.028Z,9.30
2022-09-20T01:51:26.547Z,9.30
2022-09-20T01:54:20.248Z,8.60
2022-09-20T01:56:54.155Z,9.40
2022-09-20T01:59:46.701Z,8.80
2022-09-20T02:02:41.035Z,8.10
2022-09-20T02:05:11.927Z,9.40
2022-09-20T02:08:17.476Z,9.00
2022-09-20T02:11:00.702Z,9.10
2022-09-20T02:13:44.543Z,8.30
2022-09-20T02:16:21.659Z,8.50
2022-09-20T02:19:08.231Z,9.10
2022-09-20T02:21:47.568Z,10.20
2022-09-20T02:24:48.918Z,9.30
2022-09-20T02:27:55.598Z,8.80
2022-09-20T02:30:48.333Z,10.10
2022-09-20T02:33:34.438Z,9.00
2022-09-20T02:36:26.267Z,9.90
2022-09-20T02:39:20.962Z,9.10
2022-09-20T02:41:55.897Z,8.70
2022-09-20T02:44:59.806Z,10.40
2022-09-20T02:47:41.419Z,9.10
2022-09-20T02:50:24.825Z,10.30
2022-09-20T02:53:26.602Z,9.30
2022-09-20T02:55:54.560Z,9.80
2022-09-20T02:58:47.614Z,10.50
2022-09-20T03:01:31.516Z,9.00
2022-09-20T03:04:08.587Z,8.90
2022-09-20T03:06:58.318Z,8.80
2022-09-20T03:09:51.787Z,9.60
2022-09-20T03:12:48.117Z,9.20
2022-09-20T03:15:45.984Z,8.90
2022-09-20T03:18:27.373Z,8.60
2022-09-20T03:21:13.054Z,9.20
2022-09-20T03:23:55.948Z,9.60
2022-09-20T03:26:46.268Z,8.80
2022-09-20T03:29:39.016Z,7.80
2022-09-20T03:32:16.360Z,9.30
2022-09-20T03:35:02.295Z,8.10
2022-09-20T03:37:46.343Z,8.40
2022-09-20T03:40:35.578Z,8.30
2022-09-20T03:43:45.255Z,7.80
2022-09-20T03:46:16.034Z,8.20
2022-09-20T03:49:05.359Z,8.60
2022-09-20T03:52:10.295Z,8.40
2022-09-20T03:55:16.460Z,8.30
2022-09-20T03:57:53.235Z,7.30
2022-09-20T04:00:24.276Z,7.50
2022-09-20T04:03:17.948Z,7.60
2022-09-20T04:06:29.641Z,8.40
2022-09-20T04:09:26.794Z,7.40
2022-09-20T04:12:22.821Z,8.10
2022-09-20T04:15:05.948Z,7.90
2022-09-20T04:17:45.485Z,7.50
2022-09-20T04:20:32.297Z,7.80
2022-09-20T04:23:06.409Z,8.00
2022-09-20T04:25:43.722Z,7.70
2022-09-20T04:28:27.134Z,7.40
2022-09-20T04:31:03.084Z,6.20
2022-09-20T04:33:38.937Z,7.90
2022-09-20T04:36:31.380Z,6.90
2022-09-20T04:39:37.649Z,7.60
2022-09-20T04:42:24.560Z,6.90
2022-09-20T04:45:10.654Z,7.20
2022-09-20T04:48:17.330Z,7.50
2022-09-20T04:51:16.429Z,7.60
2022-09-20T04:53:50.440Z,7.00
2022-09-20T04:56:41.756Z,6.70
2022-09-20T04:59:19.870Z,6.70
2022-09-20T05:02:12.967Z,7.40
2022-09-20T05:05:32.397Z,7.60
2022-09-20T05:08:32.611Z,7.10
2022-09-20T05:11:21.583Z,6.80
2022-09-20T05:14:13.311Z,7.60
2022-09-20T05:16:59.752Z,6.90
2022-09-20T05:19:56.051Z,6.80
2022-09-20T05:22:44.287Z,7.10
2022-09-20T05:25:40.213Z,6.70
2022-09-20T05:28:27.228Z,7.10
2022-09-20T05:31:05.947Z,7.50
2022-09-20T05:34:07.607Z,7.00
2022-09-20T05:36:57.608Z,6.30
2022-09-20T05:39:33.650Z,6.90
2022-09-20T05:42:29.575Z,7.10
2022-09-20T05:45:25.499Z,6.70
2022-09-20T05:48:22.140Z,6.40
2022-09-20T05:51:03.659Z,6.50
2022-09-20T05:56:06.439Z,7.20
2022-09-20T05:58:49.274Z,6.50
2022-09-20T06:02:02.728Z,6.00
2022-09-20T06:04:57.372Z,5.80
2022-09-20T06:07:50.431Z,6.10
2022-09-20T06:10:31.300Z,6.00
2022-09-20T06:13:49.138Z,5.60
2022-09-20T06:16:30.157Z,5.00
2022-09-20T06:19:01.052Z,6.00
2022-09-20T06:21:40.283Z,5.20
2022-09-20T06:24:19.004Z,6.20
2022-09-20T06:26:50.148Z,5.70
2022-09-20T06:29:38.906Z,5.70
2022-09-20T06:32:08.410Z,6.00
2022-09-20T06:34:36.909Z,6.00
2022-09-20T06:37:37.730Z,5.90
2022-09-20T06:40:51.577Z,5.60
2022-09-20T06:43:19.645Z,5.60
2022-09-20T06:45:48.793Z,5.50
2022-09-20T06:48:19.374Z,5.70
2022-09-20T06:50:47.546Z,5.70
2022-09-20T06:53:24.311Z,6.60
2022-09-20T06:55:53.109Z,5.70
2022-09-20T06:58:21.180Z,6.40
2022-09-20T07:00:49.479Z,5.20
2022-09-20T07:03:19.781Z,6.10
2022-09-20T07:05:48.444Z,5.50
2022-09-20T07:08:17.693Z,6.20
2022-09-20T07:10:45.738Z,5.30
2022-09-20T07:13:14.217Z,5.90
2022-09-20T07:15:42.288Z,5.20
2022-09-20T07:18:10.360Z,5.60
2022-09-20T07:20:38.533Z,6.60
2022-09-20T07:23:06.606Z,5.90
2022-09-20T07:25:35.278Z,6.10
2022-09-20T07:28:03.669Z,6.00
2022-09-20T07:30:31.741Z,6.40
2022-09-20T07:33:00.528Z,6.50
2022-09-20T07:35:29.420Z,6.80
2022-09-20T07:37:58.514Z,6.20
2022-09-20T07:40:27.145Z,6.30
2022-09-20T07:42:57.415Z,6.20
2022-09-20T07:45:25.990Z,7.80
2022-09-20T07:47:54.586Z,7.00
2022-09-20T07:50:22.761Z,5.90
2022-09-20T07:52:51.039Z,6.40
2022-09-20T07:55:19.621Z,6.60
2022-09-20T07:57:47.896Z,6.30
2022-09-20T08:00:16.378Z,6.20
2022-09-20T08:02:45.786Z,6.20
2022-09-20T08:05:13.853Z,6.00
2022-09-20T08:07:42.025Z,6.40
2022-09-20T08:10:10.609Z,5.70
2022-09-20T08:15:26.658Z,5.80
2022-09-20T08:17:55.305Z,6.10
2022-09-20T08:20:23.375Z,5.80
2022-09-20T08:23:12.729Z,5.00
2022-09-20T08:25:39.692Z,5.60
2022-09-20T08:28:08.074Z,5.30
2022-09-20T08:30:36.242Z,6.50
2022-09-20T08:33:05.123Z,5.00
2022-09-20T08:35:38.226Z,5.80
2022-09-20T08:41:10.000Z,4.70
2022-09-20T08:44:17.290Z,5.20
2022-09-20T08:46:50.280Z,4.70
2022-09-20T08:49:29.920Z,5.40
2022-09-20T08:51:59.629Z,4.70
2022-09-20T08:54:35.585Z,4.40
2022-09-20T08:57:11.339Z,4.20
2022-09-20T08:59:40.024Z,4.90
2022-09-20T09:02:20.254Z,4.10
2022-09-20T09:04:50.194Z,3.70
2022-09-20T09:07:22.055Z,3.10
2022-09-20T09:12:26.287Z,3.50
2022-09-20T09:14:59.888Z,3.80
2022-09-20T09:17:30.189Z,4.00
2022-09-20T09:20:02.281Z,4.20
2022-09-20T09:22:37.004Z,4.00
2022-09-20T09:25:28.024Z,4.10
2022-09-20T09:28:12.701Z,4.10
2022-09-20T09:30:44.025Z,4.60
2022-09-20T09:33:14.859Z,4.10
2022-09-20T09:35:44.091Z,4.80
2022-09-20T09:38:24.312Z,5.10
2022-09-20T09:40:59.245Z,4.60
2022-09-20T09:43:31.421Z,4.00
2022-09-20T09:46:24.226Z,5.90
2022-09-20T09:49:24.489Z,7.10
2022-09-20T09:52:07.513Z,6.00
2022-09-20T09:54:38.962Z,4.70
2022-09-20T09:57:16.050Z,5.00
2022-09-20T10:00:18.652Z,4.60
2022-09-20T10:02:53.761Z,3.80
2022-09-20T10:05:27.568Z,4.20
2022-09-20T10:08:23.799Z,5.20
2022-09-20T10:11:01.090Z,5.10
2022-09-20T10:13:57.932Z,5.10
2022-09-20T10:16:29.462Z,4.40
2022-09-20T10:19:19.440Z,6.10
2022-09-20T10:22:04.642Z,3.60
2022-09-20T10:25:19.716Z,3.30
2022-09-20T10:27:59.051Z,3.70
2022-09-20T10:30:57.793Z,3.70
2022-09-20T10:33:37.793Z,3.40
2022-09-20T10:36:37.428Z,3.60
2022-09-20T10:39:17.252Z,3.30
2022-09-20T10:42:38.366Z,3.10
2022-09-20T10:45:42.141Z,3.30
2022-09-20T10:48:18.337Z,3.70
2022-09-20T10:50:52.039Z,4.00
2022-09-20T10:53:49.710Z,2.80
2022-09-20T10:56:39.998Z,2.30
2022-09-20T10:59:07.968Z,3.00
2022-09-20T11:02:03.152Z,2.50
2022-09-20T11:04:43.430Z,2.10
2022-09-20T11:07:19.592Z,2.10
2022-09-20T11:09:58.314Z,2.60
2022-09-20T11:12:42.771Z,2.80
2022-09-20T11:15:23.156Z,3.00
2022-09-20T11:18:14.241Z,2.70
2022-09-20T11:20:54.597Z,2.90
2022-09-20T11:23:35.673Z,3.00
2022-09-20T11:26:31.385Z,2.50
2022-09-20T11:29:28.854Z,2.50
2022-09-20T11:32:21.911Z,3.40
2022-09-20T11:34:55.924Z,3.20
2022-09-20T11:37:30.750Z,2.80
2022-09-20T11:40:04.893Z,2.80
2022-09-20T11:42:37.030Z,3.00
2022-09-20T11:45:06.607Z,2.60
2022-09-20T11:47:55.319Z,2.90
2022-09-20T11:50:47.535Z,2.90
2022-09-20T11:53:43.455Z,2.40
2022-09-20T11:56:25.350Z,2.40
2022-09-20T12:01:32.655Z,2.60
2022-09-20T12:07:10.631Z,2.90
2022-09-20T12:09:45.331Z,2.80
2022-09-20T12:12:36.710Z,2.50
2022-09-20T12:15:22.004Z,2.60
2022-09-20T12:17:50.274Z,2.80
2022-09-20T12:20:36.574Z,3.30
2022-09-20T12:23:38.857Z,3.60
2022-09-20T12:26:19.001Z,3.20
2022-09-20T12:28:50.554Z,3.40
2022-09-20T12:31:18.659Z,3.30
2022-09-20T12:34:15.572Z,3.00
2022-09-20T12:36:45.282Z,3.00
2022-09-20T12:39:17.567Z,3.30
2022-09-20T12:41:57.406Z,3.30
2022-09-20T12:44:33.457Z,3.10
2022-09-20T12:47:01.529Z,3.10
2022-09-20T12:49:48.237Z,3.20
2022-09-20T12:52:59.014Z,2.90
2022-09-20T12:55:27.702Z,3.10
2022-09-20T12:58:02.319Z,2.60
2022-09-20T13:00:42.913Z,2.50
2022-09-20T13:03:24.168Z,2.30
2022-09-20T13:06:07.498Z,2.40
2022-09-20T13:08:43.143Z,2.30
2022-09-20T13:11:19.612Z,2.30
2022-09-20T13:14:06.422Z,2.30
2022-09-20T13:16:48.419Z,1.90
2022-09-20T13:22:42.215Z,2.00
2022-09-20T13:25:18.580Z,1.90
2022-09-20T13:28:03.240Z,1.90
2022-09-20T13:30:32.954Z,2.20
2022-09-20T13:33:23.140Z,1.80
2022-09-20T13:35:58.993Z,1.50
2022-09-20T13:38:31.988Z,1.80
2022-09-20T13:41:07.420Z,1.40
2022-09-20T13:43:41.844Z,1.60
2022-09-20T13:46:16.334Z,2.40
2022-09-20T13:48:47.592Z,2.10
2022-09-20T13:51:19.371Z,1.90
2022-09-20T13:53:47.864Z,1.70
2022-09-20T13:56:21.861Z,1.60
2022-09-20T13:58:51.574Z,1.70
2022-09-20T14:01:35.109Z,1.70
2022-09-20T14:04:08.369Z,1.70
2022-09-20T14:06:37.086Z,2.30
2022-09-20T14:09:11.382Z,2.30
2022-09-20T14:11:40.374Z,1.90
2022-09-20T14:14:11.335Z,2.30
2022-09-20T14:16:45.448Z,2.00
2022-09-20T14:19:20.362Z,1.90
2022-09-20T14:21:50.109Z,1.50
2022-09-20T14:24:18.057Z,1.60
2022-09-20T14:27:03.253Z,2.00
2022-09-20T14:29:34.068Z,1.70
2022-09-20T14:32:12.377Z,1.80
2022-09-20T14:34:41.657Z,1.80
2022-09-20T14:37:26.236Z,1.90
2022-09-20T14:40:01.291Z,2.00
2022-09-20T14:42:30.343Z,1.70
2022-09-20T14:44:59.153Z,1.80
2022-09-20T14:47:38.575Z,1.80
2022-09-20T14:50:43.833Z,1.70
2022-09-20T14:53:12.418Z,1.60
2022-09-20T14:55:55.439Z,1.80
2022-09-20T14:58:26.282Z,1.80
2022-09-20T15:01:01.845Z,2.60
2022-09-20T15:03:41.773Z,2.20
2022-09-20T15:06:14.407Z,2.10
2022-09-20T15:08:46.392Z,2.20
2022-09-20T15:11:19.517Z,2.30
2022-09-20T15:13:47.574Z,1.80
2022-09-20T15:16:20.527Z,1.70
2022-09-20T15:18:48.837Z,2.10
2022-09-20T15:21:16.908Z,2.70
2022-09-20T15:23:44.979Z,1.80
2022-09-20T15:26:15.203Z,1.80
2022-09-20T15:28:43.272Z,2.20
2022-09-20T15:31:11.394Z,2.00
2022-09-20T15:33:39.825Z,2.20
2022-09-20T15:36:08.407Z,2.10
2022-09-20T15:38:36.433Z,1.70
2022-09-20T15:41:04.859Z,1.60
2022-09-20T15:43:32.904Z,1.80
2022-09-20T15:46:17.083Z,1.50
2022-09-20T15:48:45.352Z,1.70
2022-09-20T15:51:15.287Z,1.40
2022-09-20T15:53:54.090Z,1.20
2022-09-20T15:56:25.131Z,1.30
2022-09-20T15:59:01.908Z,1.40
2022-09-20T16:01:37.123Z,1.40
2022-09-20T16:04:13.600Z,1.50
2022-09-20T16:06:44.166Z,1.40
2022-09-20T16:09:12.626Z,1.00
2022-09-20T16:11:41.207Z,1.20
2022-09-20T16:14:09.287Z,1.40
2022-09-20T16:16:40.341Z,1.10
2022-09-20T16:19:18.032Z,1.00
2022-09-20T16:21:58.099Z,1.10
2022-09-20T16:24:30.145Z,1.30
2022-09-20T16:27:00.970Z,1.20
2022-09-20T16:29:30.889Z,1.10
2022-09-20T16:32:00.696Z,1.50
2022-09-20T16:34:34.296Z,1.50
2022-09-20T16:37:20.392Z,3.50
2022-09-20T16:39:48.667Z,2.90
2022-09-20T16:42:17.250Z,2.90
2022-09-20T16:44:45.527Z,2.20
2022-09-20T16:47:20.766Z,2.50
2022-09-20T16:49:50.374Z,2.80
2022-09-20T16:52:18.547Z,2.30
2022-09-20T16:54:47.027Z,2.90
2022-09-20T16:57:15.921Z,2.50
2022-09-20T16:59:46.345Z,3.60
2022-09-20T17:02:14.725Z,6.40
2022-09-20T17:04:43.977Z,3.60
2022-09-20T17:07:12.617Z,2.30
2022-09-20T17:12:33.839Z,1.50
2022-09-20T17:15:01.908Z,1.70
2022-09-20T17:17:30.391Z,3.10
2022-09-20T17:19:58.472Z,20.90
2022-09-20T17:22:26.841Z,136.20
2022-09-20T17:24:55.117Z,149.80
2022-09-20T17:27:24.213Z,88.20
2022-09-20T17:29:52.366Z,104.60
2022-09-20T17:32:20.867Z,15.80
2022-09-20T17:34:49.040Z,10.50
2022-09-20T17:37:17.112Z,4.60
2022-09-20T17:39:45.183Z,3.60
2022-09-20T17:42:13.255Z,3.10
2022-09-20T17:44:41.334Z,4.40
2022-09-20T17:47:09.500Z,3.50
2022-09-20T17:49:38.595Z,4.10
2022-09-20T17:52:08.222Z,3.20
2022-09-20T17:54:36.273Z,3.80
2022-09-20T17:57:05.880Z,3.60
2022-09-20T17:59:34.672Z,3.40
2022-09-20T18:02:02.843Z,3.70
2022-09-20T18:04:30.914Z,4.10
2022-09-20T18:06:59.090Z,4.00
2022-09-20T18:09:27.584Z,4.60
2022-09-20T18:11:56.870Z,4.90
2022-09-20T18:14:28.606Z,4.40
2022-09-20T18:17:01.458Z,4.80
2022-09-20T18:19:33.731Z,4.90
2022-09-20T18:22:02.974Z,4.30
2022-09-20T18:24:31.791Z,4.50
2022-09-20T18:27:01.190Z,4.70
2022-09-20T18:29:31.903Z,5.10
2022-09-20T18:32:00.991Z,4.80
2022-09-20T18:34:33.780Z,5.00
2022-09-20T18:37:04.617Z,5.00
2022-09-20T18:39:35.120Z,6.10
2022-09-20T18:42:04.406Z,5.60
2022-09-20T18:44:34.338Z,5.00
2022-09-20T18:47:04.377Z,5.40
2022-09-20T18:49:33.354Z,5.20
2022-09-20T18:52:02.984Z,4.90
2022-09-20T18:54:32.482Z,4.40
2022-09-20T18:57:01.200Z,5.30
2022-09-20T18:59:29.638Z,4.90
2022-09-20T19:02:10.214Z,5.20
2022-09-20T19:04:56.410Z,5.00
2022-09-20T19:07:39.636Z,5.40
2022-09-20T19:10:27.368Z,4.80
2022-09-20T19:13:03.716Z,4.90
2022-09-20T19:15:53.905Z,5.50
2022-09-20T19:18:42.578Z,5.30
2022-09-20T19:21:19.353Z,6.00
2022-09-20T19:24:03.578Z,4.90
2022-09-20T19:26:38.332Z,5.40
2022-09-20T19:29:33.541Z,5.10
2022-09-20T19:32:02.510Z,5.60
2022-09-20T19:34:34.717Z,5.70
2022-09-20T19:37:21.613Z,5.60
2022-09-20T19:40:25.988Z,5.50
2022-09-20T19:43:11.106Z,5.80
2022-09-20T19:45:55.765Z,6.40
2022-09-20T19:48:50.564Z,5.60
2022-09-20T19:51:19.272Z,5.90
2022-09-20T19:53:47.794Z,5.70
2022-09-20T19:56:27.845Z,5.90
2022-09-20T19:58:56.482Z,4.90
2022-09-20T20:01:26.547Z,5.70
2022-09-20T20:03:56.016Z,6.00
2022-09-20T20:06:36.980Z,5.70
2022-09-20T20:09:11.800Z,5.70
2022-09-20T20:11:58.707Z,6.60
2022-09-20T20:14:26.677Z,6.60
2022-09-20T20:17:06.011Z,6.90
2022-09-20T20:19:33.980Z,6.40
2022-09-20T20:22:08.804Z,6.10
2022-09-20T20:24:41.795Z,6.60
2022-09-20T20:27:09.870Z,6.30
2022-09-20T20:29:37.942Z,6.20
2022-09-20T20:32:06.115Z,6.60
2022-09-20T20:34:37.255Z,6.70
2022-09-20T20:37:05.754Z,7.10
2022-09-20T20:39:34.428Z,5.70
2022-09-20T20:42:03.621Z,6.30
2022-09-20T20:44:35.190Z,6.70
2022-09-20T20:47:05.988Z,6.70
2022-09-20T20:49:36.104Z,7.60
2022-09-20T20:52:05.291Z,7.20
2022-09-20T20:54:33.490Z,5.90
2022-09-20T20:57:03.492Z,6.60
2022-09-20T20:59:31.589Z,7.40
2022-09-20T21:02:04.533Z,6.30
2022-09-20T21:04:34.286Z,6.70
2022-09-20T21:07:02.561Z,6.40
2022-09-20T21:09:32.271Z,7.00
2022-09-20T21:12:00.445Z,6.60
2022-09-20T21:14:28.721Z,7.20
2022-09-20T21:16:57.509Z,7.00
2022-09-20T21:19:25.990Z,6.40
2022-09-20T21:21:54.065Z,6.90
2022-09-20T21:24:22.135Z,7.90
2022-09-20T21:26:50.205Z,6.60
2022-09-20T21:29:19.915Z,7.60
2022-09-20T21:31:48.191Z,7.60
2022-09-20T21:34:16.960Z,7.20
2022-09-20T21:36:45.360Z,7.70
2022-09-20T21:39:13.837Z,7.30
2022-09-20T21:41:42.011Z,7.70
2022-09-20T21:44:11.005Z,8.20
2022-09-20T21:46:41.510Z,7.90
2022-09-20T21:49:11.864Z,7.00
2022-09-20T21:51:45.458Z,8.30
2022-09-20T21:54:13.530Z,7.90
2022-09-20T21:56:41.703Z,7.90
2022-09-20T21:59:10.184Z,7.80
2022-09-20T22:01:40.422Z,8.30
2022-09-20T22:04:11.268Z,9.90
2022-09-20T22:06:42.175Z,8.40
2022-09-20T22:09:16.198Z,9.30
2022-09-20T22:11:49.180Z,8.30
2022-09-20T22:14:19.959Z,8.60
2022-09-20T22:16:51.560Z,10.50
2022-09-20T22:19:20.590Z,8.90
2022-09-20T22:21:51.055Z,9.00
2022-09-20T22:24:19.892Z,8.40
2022-09-20T22:26:50.310Z,8.70
2022-09-20T22:29:18.786Z,8.30
2022-09-20T22:31:50.442Z,8.20
2022-09-20T22:34:20.869Z,9.90
2022-09-20T22:36:49.734Z,8.50
2022-09-20T22:39:18.143Z,7.50
2022-09-20T22:41:48.284Z,7.90
2022-09-20T22:44:16.737Z,8.00
2022-09-20T22:46:44.909Z,8.10
2022-09-20T22:49:12.980Z,8.40
2022-09-20T22:51:41.256Z,7.60
2022-09-20T22:54:11.598Z,8.10
2022-09-20T22:56:41.598Z,8.40
2022-09-20T22:59:12.843Z,7.60
2022-09-20T23:01:43.205Z,9.40
2022-09-20T23:04:17.284Z,8.20
2022-09-20T23:09:36.976Z,8.00
2022-09-20T23:12:05.152Z,8.00
2022-09-20T23:14:33.220Z,8.00
2022-09-20T23:19:49.849Z,8.80
2022-09-20T23:22:17.914Z,8.00
2022-09-20T23:24:45.988Z,8.30
2022-09-20T23:27:15.681Z,8.30
2022-09-20T23:29:43.767Z,8.00
2022-09-20T23:32:11.838Z,8.20
2022-09-20T23:34:39.909Z,8.20
2022-09-20T23:37:07.981Z,7.50
2022-09-20T23:39:36.053Z,8.90
2022-09-20T23:42:07.505Z,7.90
2022-09-20T23:44:35.576Z,8.60
2022-09-20T23:47:03.851Z,8.00
2022-09-20T23:49:32.331Z,9.70
2022-09-20T23:52:00.524Z,8.40
2022-09-20T23:54:28.780Z,7.00
2022-09-20T23:56:56.764Z,7.90
2022-09-20T23:59:25.128Z,8.10
